sensor_id;sensor_type;location;lat;lon;timestamp;temperature;humidity
8402;DHT22;4238;48.404;9.498;2023-03-03T00:00:37;1.90;94.20
8402;DHT22;4238;48.404;9.498;2023-03-03T00:03:06;2.00;95.90
8402;DHT22;4238;48.404;9.498;2023-03-03T00:05:34;2.10;96.20
8402;DHT22;4238;48.404;9.498;2023-03-03T00:08:01;2.10;94.40
8402;DHT22;4238;48.404;9.498;2023-03-03T00:10:29;2.10;93.40
8402;DHT22;4238;48.404;9.498;2023-03-03T00:12:56;2.10;94.60
8402;DHT22;4238;48.404;9.498;2023-03-03T00:15:25;2.10;93.00
8402;DHT22;4238;48.404;9.498;2023-03-03T00:17:54;2.10;92.90
8402;DHT22;4238;48.404;9.498;2023-03-03T00:20:31;2.10;92.80
8402;DHT22;4238;48.404;9.498;2023-03-03T00:23:12;2.10;91.80
8402;DHT22;4238;48.404;9.498;2023-03-03T00:25:43;2.10;91.90
8402;DHT22;4238;48.404;9.498;2023-03-03T00:28:24;2.10;92.00
8402;DHT22;4238;48.404;9.498;2023-03-03T00:30:54;2.10;92.40
8402;DHT22;4238;48.404;9.498;2023-03-03T00:33:26;2.20;92.30
8402;DHT22;4238;48.404;9.498;2023-03-03T00:35:54;2.20;88.40
8402;DHT22;4238;48.404;9.498;2023-03-03T00:38:21;2.30;83.50
8402;DHT22;4238;48.404;9.498;2023-03-03T00:40:48;2.40;82.30
8402;DHT22;4238;48.404;9.498;2023-03-03T00:43:19;2.50;76.60
8402;DHT22;4238;48.404;9.498;2023-03-03T00:45:47;2.30;76.50
8402;DHT22;4238;48.404;9.498;2023-03-03T00:48:27;2.30;82.50
8402;DHT22;4238;48.404;9.498;2023-03-03T00:50:56;2.40;83.10
8402;DHT22;4238;48.404;9.498;2023-03-03T00:53:24;2.30;83.10
8402;DHT22;4238;48.404;9.498;2023-03-03T00:55:52;2.40;80.30
8402;DHT22;4238;48.404;9.498;2023-03-03T00:58:20;2.40;74.10
8402;DHT22;4238;48.404;9.498;2023-03-03T01:00:48;2.50;72.60
8402;DHT22;4238;48.404;9.498;2023-03-03T01:03:20;2.40;68.10
8402;DHT22;4238;48.404;9.498;2023-03-03T01:05:51;2.40;70.40
8402;DHT22;4238;48.404;9.498;2023-03-03T01:08:18;2.40;76.90
8402;DHT22;4238;48.404;9.498;2023-03-03T01:10:48;2.40;76.40
8402;DHT22;4238;48.404;9.498;2023-03-03T01:13:17;2.40;74.10
8402;DHT22;4238;48.404;9.498;2023-03-03T01:15:44;2.50;71.70
8402;DHT22;4238;48.404;9.498;2023-03-03T01:18:11;2.50;66.80
8402;DHT22;4238;48.404;9.498;2023-03-03T01:20:38;2.50;67.10
8402;DHT22;4238;48.404;9.498;2023-03-03T01:23:07;2.50;63.30
8402;DHT22;4238;48.404;9.498;2023-03-03T01:25:34;2.50;66.90
8402;DHT22;4238;48.404;9.498;2023-03-03T01:28:01;2.40;66.70
8402;DHT22;4238;48.404;9.498;2023-03-03T01:30:28;2.50;71.70
8402;DHT22;4238;48.404;9.498;2023-03-03T01:32:56;2.60;62.10
8402;DHT22;4238;48.404;9.498;2023-03-03T01:35:23;2.60;59.90
8402;DHT22;4238;48.404;9.498;2023-03-03T01:37:50;2.60;58.80
8402;DHT22;4238;48.404;9.498;2023-03-03T01:40:20;2.60;56.70
8402;DHT22;4238;48.404;9.498;2023-03-03T01:42:47;2.40;59.60
8402;DHT22;4238;48.404;9.498;2023-03-03T01:45:21;2.30;67.80
8402;DHT22;4238;48.404;9.498;2023-03-03T01:47:53;2.30;77.30
8402;DHT22;4238;48.404;9.498;2023-03-03T01:50:30;2.20;83.60
8402;DHT22;4238;48.404;9.498;2023-03-03T01:52:59;2.20;83.80
8402;DHT22;4238;48.404;9.498;2023-03-03T01:55:33;2.20;83.90
8402;DHT22;4238;48.404;9.498;2023-03-03T01:58:03;2.20;78.90
8402;DHT22;4238;48.404;9.498;2023-03-03T02:00:33;2.30;81.40
8402;DHT22;4238;48.404;9.498;2023-03-03T02:03:01;2.30;83.60
8402;DHT22;4238;48.404;9.498;2023-03-03T02:05:29;2.50;72.10
8402;DHT22;4238;48.404;9.498;2023-03-03T02:07:56;2.60;54.30
8402;DHT22;4238;48.404;9.498;2023-03-03T02:10:23;2.60;53.70
8402;DHT22;4238;48.404;9.498;2023-03-03T02:12:53;2.60;57.30
8402;DHT22;4238;48.404;9.498;2023-03-03T02:15:22;2.60;51.60
8402;DHT22;4238;48.404;9.498;2023-03-03T02:17:52;2.40;54.30
8402;DHT22;4238;48.404;9.498;2023-03-03T02:20:28;2.30;68.20
8402;DHT22;4238;48.404;9.498;2023-03-03T02:23:01;2.30;67.40
8402;DHT22;4238;48.404;9.498;2023-03-03T02:25:35;2.40;73.10
8402;DHT22;4238;48.404;9.498;2023-03-03T02:28:04;2.30;70.30
8402;DHT22;4238;48.404;9.498;2023-03-03T02:30:36;2.20;70.00
8402;DHT22;4238;48.404;9.498;2023-03-03T02:33:04;2.10;77.30
8402;DHT22;4238;48.404;9.498;2023-03-03T02:35:33;2.10;79.20
8402;DHT22;4238;48.404;9.498;2023-03-03T02:38:14;2.00;85.40
8402;DHT22;4238;48.404;9.498;2023-03-03T02:40:47;2.00;86.20
8402;DHT22;4238;48.404;9.498;2023-03-03T02:43:19;2.10;84.60
8402;DHT22;4238;48.404;9.498;2023-03-03T02:45:48;2.30;79.40
8402;DHT22;4238;48.404;9.498;2023-03-03T02:48:15;2.20;74.90
8402;DHT22;4238;48.404;9.498;2023-03-03T02:50:41;2.10;75.60
8402;DHT22;4238;48.404;9.498;2023-03-03T02:53:08;2.20;80.60
8402;DHT22;4238;48.404;9.498;2023-03-03T02:55:35;2.20;84.00
8402;DHT22;4238;48.404;9.498;2023-03-03T02:58:02;2.20;78.00
8402;DHT22;4238;48.404;9.498;2023-03-03T03:00:30;2.20;74.20
8402;DHT22;4238;48.404;9.498;2023-03-03T03:02:57;2.30;79.30
8402;DHT22;4238;48.404;9.498;2023-03-03T03:05:24;2.10;71.80
8402;DHT22;4238;48.404;9.498;2023-03-03T03:07:51;2.10;79.50
8402;DHT22;4238;48.404;9.498;2023-03-03T03:10:18;2.00;88.40
8402;DHT22;4238;48.404;9.498;2023-03-03T03:12:45;2.20;82.90
8402;DHT22;4238;48.404;9.498;2023-03-03T03:15:12;2.10;79.40
8402;DHT22;4238;48.404;9.498;2023-03-03T03:17:41;2.20;81.30
8402;DHT22;4238;48.404;9.498;2023-03-03T03:20:09;2.10;81.50
8402;DHT22;4238;48.404;9.498;2023-03-03T03:22:36;2.20;84.70
8402;DHT22;4238;48.404;9.498;2023-03-03T03:25:04;2.10;83.70
8402;DHT22;4238;48.404;9.498;2023-03-03T03:27:31;2.20;84.10
8402;DHT22;4238;48.404;9.498;2023-03-03T03:29:57;2.20;84.50
8402;DHT22;4238;48.404;9.498;2023-03-03T03:32:24;2.20;85.20
8402;DHT22;4238;48.404;9.498;2023-03-03T03:34:53;2.30;84.40
8402;DHT22;4238;48.404;9.498;2023-03-03T03:37:20;2.30;77.50
8402;DHT22;4238;48.404;9.498;2023-03-03T03:39:46;2.30;77.00
8402;DHT22;4238;48.404;9.498;2023-03-03T03:42:13;2.30;76.80
8402;DHT22;4238;48.404;9.498;2023-03-03T03:44:40;2.40;77.30
8402;DHT22;4238;48.404;9.498;2023-03-03T03:47:07;2.40;72.20
8402;DHT22;4238;48.404;9.498;2023-03-03T03:49:34;2.40;64.30
8402;DHT22;4238;48.404;9.498;2023-03-03T03:52:03;2.30;68.50
8402;DHT22;4238;48.404;9.498;2023-03-03T03:54:30;2.20;75.50
8402;DHT22;4238;48.404;9.498;2023-03-03T03:56:56;2.20;73.50
8402;DHT22;4238;48.404;9.498;2023-03-03T03:59:23;2.20;77.50
8402;DHT22;4238;48.404;9.498;2023-03-03T04:01:50;2.30;70.80
8402;DHT22;4238;48.404;9.498;2023-03-03T04:04:17;2.20;72.80
8402;DHT22;4238;48.404;9.498;2023-03-03T04:06:44;2.10;76.00
8402;DHT22;4238;48.404;9.498;2023-03-03T04:09:12;2.10;73.30
8402;DHT22;4238;48.404;9.498;2023-03-03T04:11:39;2.10;85.00
8402;DHT22;4238;48.404;9.498;2023-03-03T04:14:06;2.30;79.90
8402;DHT22;4238;48.404;9.498;2023-03-03T04:16:33;2.20;70.50
8402;DHT22;4238;48.404;9.498;2023-03-03T04:19:00;2.30;76.10
8402;DHT22;4238;48.404;9.498;2023-03-03T04:21:27;2.50;65.70
8402;DHT22;4238;48.404;9.498;2023-03-03T04:23:54;2.40;58.50
8402;DHT22;4238;48.404;9.498;2023-03-03T04:26:22;2.40;60.80
8402;DHT22;4238;48.404;9.498;2023-03-03T04:28:49;2.40;66.30
8402;DHT22;4238;48.404;9.498;2023-03-03T04:31:16;2.60;56.60
8402;DHT22;4238;48.404;9.498;2023-03-03T04:33:45;2.40;54.30
8402;DHT22;4238;48.404;9.498;2023-03-03T04:36:12;2.50;53.70
8402;DHT22;4238;48.404;9.498;2023-03-03T04:38:39;2.50;53.80
8402;DHT22;4238;48.404;9.498;2023-03-03T04:41:05;2.40;52.00
8402;DHT22;4238;48.404;9.498;2023-03-03T04:43:34;2.30;61.60
8402;DHT22;4238;48.404;9.498;2023-03-03T04:46:01;2.20;63.00
8402;DHT22;4238;48.404;9.498;2023-03-03T04:48:28;2.10;73.50
8402;DHT22;4238;48.404;9.498;2023-03-03T04:50:54;2.20;77.40
8402;DHT22;4238;48.404;9.498;2023-03-03T04:53:22;2.30;70.70
8402;DHT22;4238;48.404;9.498;2023-03-03T04:55:49;2.20;70.40
8402;DHT22;4238;48.404;9.498;2023-03-03T04:58:16;2.30;73.30
8402;DHT22;4238;48.404;9.498;2023-03-03T05:00:45;2.30;59.60
8402;DHT22;4238;48.404;9.498;2023-03-03T05:03:12;2.00;73.40
8402;DHT22;4238;48.404;9.498;2023-03-03T05:05:39;1.90;79.60
8402;DHT22;4238;48.404;9.498;2023-03-03T05:08:06;1.90;81.30
8402;DHT22;4238;48.404;9.498;2023-03-03T05:10:33;1.90;90.10
8402;DHT22;4238;48.404;9.498;2023-03-03T05:13:00;2.00;89.00
8402;DHT22;4238;48.404;9.498;2023-03-03T05:15:27;1.80;82.20
8402;DHT22;4238;48.404;9.498;2023-03-03T05:17:55;1.80;90.70
8402;DHT22;4238;48.404;9.498;2023-03-03T05:20:23;1.70;92.20
8402;DHT22;4238;48.404;9.498;2023-03-03T05:22:49;1.80;94.10
8402;DHT22;4238;48.404;9.498;2023-03-03T05:25:16;2.10;85.20
8402;DHT22;4238;48.404;9.498;2023-03-03T05:27:44;2.20;73.60
8402;DHT22;4238;48.404;9.498;2023-03-03T05:30:12;2.00;79.20
8402;DHT22;4238;48.404;9.498;2023-03-03T05:32:39;2.00;80.50
8402;DHT22;4238;48.404;9.498;2023-03-03T05:35:09;2.10;75.10
8402;DHT22;4238;48.404;9.498;2023-03-03T05:37:36;2.20;72.90
8402;DHT22;4238;48.404;9.498;2023-03-03T05:40:05;2.10;72.20
8402;DHT22;4238;48.404;9.498;2023-03-03T05:42:32;2.30;65.20
8402;DHT22;4238;48.404;9.498;2023-03-03T05:44:59;2.30;54.20
8402;DHT22;4238;48.404;9.498;2023-03-03T05:47:26;2.30;57.50
8402;DHT22;4238;48.404;9.498;2023-03-03T05:49:53;2.20;54.10
8402;DHT22;4238;48.404;9.498;2023-03-03T05:52:22;2.00;61.70
8402;DHT22;4238;48.404;9.498;2023-03-03T05:54:49;2.00;64.80
8402;DHT22;4238;48.404;9.498;2023-03-03T05:57:16;1.80;65.60
8402;DHT22;4238;48.404;9.498;2023-03-03T05:59:43;1.80;80.80
8402;DHT22;4238;48.404;9.498;2023-03-03T06:02:10;2.00;72.50
8402;DHT22;4238;48.404;9.498;2023-03-03T06:04:37;1.80;67.10
8402;DHT22;4238;48.404;9.498;2023-03-03T06:07:04;1.70;73.70
8402;DHT22;4238;48.404;9.498;2023-03-03T06:09:33;1.80;83.70
8402;DHT22;4238;48.404;9.498;2023-03-03T06:11:59;1.80;72.40
8402;DHT22;4238;48.404;9.498;2023-03-03T06:14:26;1.70;78.70
8402;DHT22;4238;48.404;9.498;2023-03-03T06:16:53;1.80;76.60
8402;DHT22;4238;48.404;9.498;2023-03-03T06:19:22;1.80;79.30
8402;DHT22;4238;48.404;9.498;2023-03-03T06:21:49;1.80;78.80
8402;DHT22;4238;48.404;9.498;2023-03-03T06:24:16;1.80;78.70
8402;DHT22;4238;48.404;9.498;2023-03-03T06:26:44;1.70;81.30
8402;DHT22;4238;48.404;9.498;2023-03-03T06:29:11;1.70;89.70
8402;DHT22;4238;48.404;9.498;2023-03-03T06:31:38;1.80;83.40
8402;DHT22;4238;48.404;9.498;2023-03-03T06:34:04;2.10;75.20
8402;DHT22;4238;48.404;9.498;2023-03-03T06:36:32;2.10;67.40
8402;DHT22;4238;48.404;9.498;2023-03-03T06:38:59;2.10;58.60
8402;DHT22;4238;48.404;9.498;2023-03-03T06:41:26;2.10;57.50
8402;DHT22;4238;48.404;9.498;2023-03-03T06:43:54;1.90;63.50
8402;DHT22;4238;48.404;9.498;2023-03-03T06:46:22;1.80;70.60
8402;DHT22;4238;48.404;9.498;2023-03-03T06:48:49;1.80;73.90
8402;DHT22;4238;48.404;9.498;2023-03-03T06:51:30;1.70;81.90
8402;DHT22;4238;48.404;9.498;2023-03-03T06:54:01;1.70;87.10
8402;DHT22;4238;48.404;9.498;2023-03-03T06:56:34;1.80;85.50
8402;DHT22;4238;48.404;9.498;2023-03-03T06:59:11;1.90;71.30
8402;DHT22;4238;48.404;9.498;2023-03-03T07:01:39;2.00;76.70
8402;DHT22;4238;48.404;9.498;2023-03-03T07:04:14;2.10;67.80
8402;DHT22;4238;48.404;9.498;2023-03-03T07:06:41;2.20;66.50
8402;DHT22;4238;48.404;9.498;2023-03-03T07:09:16;2.30;58.70
8402;DHT22;4238;48.404;9.498;2023-03-03T07:11:45;2.30;56.40
8402;DHT22;4238;48.404;9.498;2023-03-03T07:14:15;2.40;57.40
8402;DHT22;4238;48.404;9.498;2023-03-03T07:16:44;2.50;51.10
8402;DHT22;4238;48.404;9.498;2023-03-03T07:19:18;2.50;52.50
8402;DHT22;4238;48.404;9.498;2023-03-03T07:21:46;2.40;38.80
8402;DHT22;4238;48.404;9.498;2023-03-03T07:24:24;2.30;49.10
8402;DHT22;4238;48.404;9.498;2023-03-03T07:26:53;2.40;52.20
8402;DHT22;4238;48.404;9.498;2023-03-03T07:29:24;2.40;54.60
8402;DHT22;4238;48.404;9.498;2023-03-03T07:31:52;2.50;50.40
8402;DHT22;4238;48.404;9.498;2023-03-03T07:34:21;2.50;35.20
8402;DHT22;4238;48.404;9.498;2023-03-03T07:36:49;2.50;35.70
8402;DHT22;4238;48.404;9.498;2023-03-03T07:39:30;2.50;39.30
8402;DHT22;4238;48.404;9.498;2023-03-03T07:42:13;2.20;47.90
8402;DHT22;4238;48.404;9.498;2023-03-03T07:44:42;2.00;48.40
8402;DHT22;4238;48.404;9.498;2023-03-03T07:47:18;2.00;62.00
8402;DHT22;4238;48.404;9.498;2023-03-03T07:49:46;2.10;65.80
8402;DHT22;4238;48.404;9.498;2023-03-03T07:52:28;2.10;63.90
8402;DHT22;4238;48.404;9.498;2023-03-03T07:54:58;2.20;68.00
8402;DHT22;4238;48.404;9.498;2023-03-03T07:57:28;2.50;58.40
8402;DHT22;4238;48.404;9.498;2023-03-03T08:01:24;2.30;46.00
8402;DHT22;4238;48.404;9.498;2023-03-03T08:02:52;2.30;58.50
8402;DHT22;4238;48.404;9.498;2023-03-03T08:05:29;2.50;66.50
8402;DHT22;4238;48.404;9.498;2023-03-03T08:08:12;2.70;53.50
8402;DHT22;4238;48.404;9.498;2023-03-03T08:10:45;2.80;43.00
8402;DHT22;4238;48.404;9.498;2023-03-03T08:13:17;2.70;37.50
8402;DHT22;4238;48.404;9.498;2023-03-03T08:15:47;2.80;48.70
8402;DHT22;4238;48.404;9.498;2023-03-03T08:18:20;3.00;42.40
8402;DHT22;4238;48.404;9.498;2023-03-03T08:20:49;2.90;26.50
8402;DHT22;4238;48.404;9.498;2023-03-03T08:23:17;2.90;37.90
8402;DHT22;4238;48.404;9.498;2023-03-03T08:25:45;3.00;39.70
8402;DHT22;4238;48.404;9.498;2023-03-03T08:28:13;3.00;36.00
8402;DHT22;4238;48.404;9.498;2023-03-03T08:30:41;3.10;33.30
8402;DHT22;4238;48.404;9.498;2023-03-03T08:33:10;3.10;34.90
8402;DHT22;4238;48.404;9.498;2023-03-03T08:35:37;3.20;26.40
8402;DHT22;4238;48.404;9.498;2023-03-03T08:38:04;3.40;22.50
8402;DHT22;4238;48.404;9.498;2023-03-03T08:40:32;3.20;14.50
8402;DHT22;4238;48.404;9.498;2023-03-03T08:42:58;3.30;23.70
8402;DHT22;4238;48.404;9.498;2023-03-03T08:45:26;3.40;18.20
8402;DHT22;4238;48.404;9.498;2023-03-03T08:47:54;3.40;21.20
8402;DHT22;4238;48.404;9.498;2023-03-03T08:50:22;3.50;3.80
8402;DHT22;4238;48.404;9.498;2023-03-03T08:52:49;3.60;12.90
8402;DHT22;4238;48.404;9.498;2023-03-03T08:55:16;3.70;1.90
8402;DHT22;4238;48.404;9.498;2023-03-03T08:57:43;3.80;1.00
8402;DHT22;4238;48.404;9.498;2023-03-03T09:00:12;3.90;1.00
8402;DHT22;4238;48.404;9.498;2023-03-03T09:02:41;4.00;1.00
8402;DHT22;4238;48.404;9.498;2023-03-03T09:05:09;4.00;1.00
8402;DHT22;4238;48.404;9.498;2023-03-03T09:07:38;4.10;1.00
8402;DHT22;4238;48.404;9.498;2023-03-03T09:10:06;4.10;1.00
8402;DHT22;4238;48.404;9.498;2023-03-03T09:12:35;4.10;1.00
8402;DHT22;4238;48.404;9.498;2023-03-03T09:15:22;4.20;1.00
8402;DHT22;4238;48.404;9.498;2023-03-03T09:17:50;4.20;1.00
8402;DHT22;4238;48.404;9.498;2023-03-03T09:20:23;4.30;1.00
8402;DHT22;4238;48.404;9.498;2023-03-03T09:22:52;4.40;1.00
8402;DHT22;4238;48.404;9.498;2023-03-03T09:25:22;4.50;1.00
8402;DHT22;4238;48.404;9.498;2023-03-03T09:27:53;4.70;1.00
8402;DHT22;4238;48.404;9.498;2023-03-03T09:30:33;4.80;1.00
8402;DHT22;4238;48.404;9.498;2023-03-03T09:33:01;4.70;1.00
8402;DHT22;4238;48.404;9.498;2023-03-03T09:35:42;4.60;1.00
8402;DHT22;4238;48.404;9.498;2023-03-03T09:38:24;4.80;1.00
8402;DHT22;4238;48.404;9.498;2023-03-03T09:41:02;4.80;1.00
8402;DHT22;4238;48.404;9.498;2023-03-03T09:43:36;4.70;1.00
8402;DHT22;4238;48.404;9.498;2023-03-03T09:46:09;4.60;1.00
8402;DHT22;4238;48.404;9.498;2023-03-03T09:48:47;4.90;1.00
8402;DHT22;4238;48.404;9.498;2023-03-03T09:54:42;5.30;1.00
8402;DHT22;4238;48.404;9.498;2023-03-03T09:57:14;5.50;1.00
8402;DHT22;4238;48.404;9.498;2023-03-03T09:59:50;5.60;1.00
8402;DHT22;4238;48.404;9.498;2023-03-03T10:02:37;5.80;1.00
8402;DHT22;4238;48.404;9.498;2023-03-03T10:05:23;5.80;1.00
8402;DHT22;4238;48.404;9.498;2023-03-03T10:08:21;5.90;1.00
8402;DHT22;4238;48.404;9.498;2023-03-03T10:10:59;5.90;1.00
8402;DHT22;4238;48.404;9.498;2023-03-03T10:13:41;6.00;1.00
8402;DHT22;4238;48.404;9.498;2023-03-03T10:16:27;6.00;1.00
8402;DHT22;4238;48.404;9.498;2023-03-03T10:19:00;6.30;1.00
8402;DHT22;4238;48.404;9.498;2023-03-03T10:21:35;6.40;99.90
8402;DHT22;4238;48.404;9.498;2023-03-03T10:24:14;6.40;99.90
8402;DHT22;4238;48.404;9.498;2023-03-03T10:27:04;6.60;99.90
8402;DHT22;4238;48.404;9.498;2023-03-03T10:29:40;6.60;1.00
8402;DHT22;4238;48.404;9.498;2023-03-03T10:32:36;6.80;99.90
8402;DHT22;4238;48.404;9.498;2023-03-03T10:35:22;6.40;99.90
8402;DHT22;4238;48.404;9.498;2023-03-03T10:38:01;6.50;1.00
8402;DHT22;4238;48.404;9.498;2023-03-03T10:40:41;7.00;1.00
8402;DHT22;4238;48.404;9.498;2023-03-03T10:43:29;7.30;1.00
8402;DHT22;4238;48.404;9.498;2023-03-03T10:46:19;7.50;1.00
8402;DHT22;4238;48.404;9.498;2023-03-03T10:49:11;7.20;99.90
8402;DHT22;4238;48.404;9.498;2023-03-03T10:51:48;6.90;1.00
8402;DHT22;4238;48.404;9.498;2023-03-03T10:54:29;6.90;99.90
8402;DHT22;4238;48.404;9.498;2023-03-03T10:57:06;7.00;99.90
8402;DHT22;4238;48.404;9.498;2023-03-03T10:59:47;7.30;99.90
8402;DHT22;4238;48.404;9.498;2023-03-03T11:02:20;7.60;99.90
8402;DHT22;4238;48.404;9.498;2023-03-03T11:04:54;7.80;99.90
8402;DHT22;4238;48.404;9.498;2023-03-03T11:07:28;7.90;99.90
8402;DHT22;4238;48.404;9.498;2023-03-03T11:10:20;7.70;69.50
8402;DHT22;4238;48.404;9.498;2023-03-03T11:12:57;7.60;7.70
8402;DHT22;4238;48.404;9.498;2023-03-03T11:15:49;7.70;99.90
8402;DHT22;4238;48.404;9.498;2023-03-03T11:18:34;7.70;99.90
8402;DHT22;4238;48.404;9.498;2023-03-03T11:21:12;7.90;1.00
8402;DHT22;4238;48.404;9.498;2023-03-03T11:24:01;8.30;99.90
8402;DHT22;4238;48.404;9.498;2023-03-03T11:26:49;8.70;1.00
8402;DHT22;4238;48.404;9.498;2023-03-03T11:29:29;8.40;1.00
8402;DHT22;4238;48.404;9.498;2023-03-03T11:32:02;8.90;99.90
8402;DHT22;4238;48.404;9.498;2023-03-03T11:34:45;9.00;99.90
8402;DHT22;4238;48.404;9.498;2023-03-03T11:37:18;9.40;18.20
8402;DHT22;4238;48.404;9.498;2023-03-03T11:39:49;9.60;21.50
8402;DHT22;4238;48.404;9.498;2023-03-03T11:42:25;9.80;1.00
8402;DHT22;4238;48.404;9.498;2023-03-03T11:45:02;10.40;1.00
8402;DHT22;4238;48.404;9.498;2023-03-03T11:47:36;10.20;99.90
8402;DHT22;4238;48.404;9.498;2023-03-03T11:50:09;10.30;35.90
8402;DHT22;4238;48.404;9.498;2023-03-03T11:52:42;10.00;92.50
8402;DHT22;4238;48.404;9.498;2023-03-03T11:55:14;9.90;99.90
8402;DHT22;4238;48.404;9.498;2023-03-03T11:57:45;10.00;99.90
8402;DHT22;4238;48.404;9.498;2023-03-03T12:00:24;9.90;99.90
8402;DHT22;4238;48.404;9.498;2023-03-03T12:03:24;9.70;99.90
8402;DHT22;4238;48.404;9.498;2023-03-03T12:05:59;9.50;99.90
8402;DHT22;4238;48.404;9.498;2023-03-03T12:08:55;9.70;99.90
8402;DHT22;4238;48.404;9.498;2023-03-03T12:11:29;9.60;99.90
8402;DHT22;4238;48.404;9.498;2023-03-03T12:14:01;9.60;99.90
8402;DHT22;4238;48.404;9.498;2023-03-03T12:16:45;9.40;99.90
8402;DHT22;4238;48.404;9.498;2023-03-03T12:19:23;9.40;1.00
8402;DHT22;4238;48.404;9.498;2023-03-03T12:22:10;9.50;99.90
8402;DHT22;4238;48.404;9.498;2023-03-03T12:24:57;9.40;1.00
8402;DHT22;4238;48.404;9.498;2023-03-03T12:27:30;9.30;1.00
8402;DHT22;4238;48.404;9.498;2023-03-03T12:30:08;8.80;1.00
8402;DHT22;4238;48.404;9.498;2023-03-03T12:32:51;8.80;1.00
8402;DHT22;4238;48.404;9.498;2023-03-03T12:35:28;8.60;22.80
8402;DHT22;4238;48.404;9.498;2023-03-03T12:37:59;8.70;1.00
8402;DHT22;4238;48.404;9.498;2023-03-03T12:40:31;9.00;8.30
8402;DHT22;4238;48.404;9.498;2023-03-03T12:43:13;9.10;99.90
8402;DHT22;4238;48.404;9.498;2023-03-03T12:45:50;8.80;1.00
8402;DHT22;4238;48.404;9.498;2023-03-03T12:48:27;8.60;99.20
8402;DHT22;4238;48.404;9.498;2023-03-03T12:51:05;8.80;1.00
8402;DHT22;4238;48.404;9.498;2023-03-03T12:56:35;9.10;99.90
8402;DHT22;4238;48.404;9.498;2023-03-03T12:59:09;9.30;99.90
8402;DHT22;4238;48.404;9.498;2023-03-03T13:01:47;9.40;1.00
8402;DHT22;4238;48.404;9.498;2023-03-03T13:04:30;9.50;40.40
8402;DHT22;4238;48.404;9.498;2023-03-03T13:07:04;9.10;31.60
8402;DHT22;4238;48.404;9.498;2023-03-03T13:09:49;9.00;99.90
8402;DHT22;4238;48.404;9.498;2023-03-03T13:12:29;9.30;99.90
8402;DHT22;4238;48.404;9.498;2023-03-03T13:15:00;9.40;40.30
8402;DHT22;4238;48.404;9.498;2023-03-03T13:17:31;9.50;1.00
8402;DHT22;4238;48.404;9.498;2023-03-03T13:20:03;9.30;58.20
8402;DHT22;4238;48.404;9.498;2023-03-03T13:22:37;9.40;1.00
8402;DHT22;4238;48.404;9.498;2023-03-03T13:25:15;9.00;1.00
8402;DHT22;4238;48.404;9.498;2023-03-03T13:27:48;8.80;82.80
8402;DHT22;4238;48.404;9.498;2023-03-03T13:30:20;8.80;24.80
8402;DHT22;4238;48.404;9.498;2023-03-03T13:32:53;8.70;75.90
8402;DHT22;4238;48.404;9.498;2023-03-03T13:35:40;8.90;99.90
8402;DHT22;4238;48.404;9.498;2023-03-03T13:38:11;9.00;99.90
8402;DHT22;4238;48.404;9.498;2023-03-03T13:40:42;8.80;1.00
8402;DHT22;4238;48.404;9.498;2023-03-03T13:43:16;8.80;99.90
8402;DHT22;4238;48.404;9.498;2023-03-03T13:45:53;8.70;99.90
8402;DHT22;4238;48.404;9.498;2023-03-03T13:48:47;8.60;99.90
8402;DHT22;4238;48.404;9.498;2023-03-03T13:51:26;8.50;99.90
8402;DHT22;4238;48.404;9.498;2023-03-03T13:54:03;8.40;99.90
8402;DHT22;4238;48.404;9.498;2023-03-03T13:56:56;8.40;1.00
8402;DHT22;4238;48.404;9.498;2023-03-03T13:59:35;8.40;99.90
8402;DHT22;4238;48.404;9.498;2023-03-03T14:02:20;8.40;99.90
8402;DHT22;4238;48.404;9.498;2023-03-03T14:05:00;8.30;99.90
8402;DHT22;4238;48.404;9.498;2023-03-03T14:07:35;8.20;99.90
8402;DHT22;4238;48.404;9.498;2023-03-03T14:10:07;8.10;1.00
8402;DHT22;4238;48.404;9.498;2023-03-03T14:12:41;8.10;99.90
8402;DHT22;4238;48.404;9.498;2023-03-03T14:15:17;8.60;1.00
8402;DHT22;4238;48.404;9.498;2023-03-03T14:17:57;8.60;99.90
8402;DHT22;4238;48.404;9.498;2023-03-03T14:20:29;8.70;99.90
8402;DHT22;4238;48.404;9.498;2023-03-03T14:23:01;8.50;99.90
8402;DHT22;4238;48.404;9.498;2023-03-03T14:25:51;8.60;99.90
8402;DHT22;4238;48.404;9.498;2023-03-03T14:28:20;8.50;99.90
8402;DHT22;4238;48.404;9.498;2023-03-03T14:30:47;8.70;99.90
8402;DHT22;4238;48.404;9.498;2023-03-03T14:33:20;8.70;1.00
8402;DHT22;4238;48.404;9.498;2023-03-03T14:36:00;8.60;39.80
8402;DHT22;4238;48.404;9.498;2023-03-03T14:38:40;8.60;42.90
8402;DHT22;4238;48.404;9.498;2023-03-03T14:43:59;8.90;99.90
8402;DHT22;4238;48.404;9.498;2023-03-03T14:46:44;9.10;92.70
8402;DHT22;4238;48.404;9.498;2023-03-03T14:49:17;9.10;1.00
8402;DHT22;4238;48.404;9.498;2023-03-03T14:52:00;9.50;1.00
8402;DHT22;4238;48.404;9.498;2023-03-03T14:54:36;9.50;99.90
8402;DHT22;4238;48.404;9.498;2023-03-03T14:57:09;9.10;99.90
8402;DHT22;4238;48.404;9.498;2023-03-03T14:59:38;9.20;99.90
8402;DHT22;4238;48.404;9.498;2023-03-03T15:02:29;9.30;1.00
8402;DHT22;4238;48.404;9.498;2023-03-03T15:05:19;9.20;99.90
8402;DHT22;4238;48.404;9.498;2023-03-03T15:07:49;9.20;99.90
8402;DHT22;4238;48.404;9.498;2023-03-03T15:10:30;9.20;1.00
8402;DHT22;4238;48.404;9.498;2023-03-03T15:12:58;9.20;1.00
8402;DHT22;4238;48.404;9.498;2023-03-03T15:15:34;9.00;1.00
8402;DHT22;4238;48.404;9.498;2023-03-03T15:18:01;8.90;1.00
8402;DHT22;4238;48.404;9.498;2023-03-03T15:20:35;9.00;1.00
8402;DHT22;4238;48.404;9.498;2023-03-03T15:23:14;9.00;1.00
8402;DHT22;4238;48.404;9.498;2023-03-03T15:25:50;8.90;1.00
8402;DHT22;4238;48.404;9.498;2023-03-03T15:28:26;8.90;1.00
8402;DHT22;4238;48.404;9.498;2023-03-03T15:31:02;8.80;1.00
8402;DHT22;4238;48.404;9.498;2023-03-03T15:33:39;8.70;1.00
8402;DHT22;4238;48.404;9.498;2023-03-03T15:36:13;8.60;1.00
8402;DHT22;4238;48.404;9.498;2023-03-03T15:38:53;8.50;1.00
8402;DHT22;4238;48.404;9.498;2023-03-03T15:41:27;8.50;99.90
8402;DHT22;4238;48.404;9.498;2023-03-03T15:44:13;8.40;99.90
8402;DHT22;4238;48.404;9.498;2023-03-03T15:52:40;7.50;1.00
8402;DHT22;4238;48.404;9.498;2023-03-03T15:55:31;7.30;1.00
8402;DHT22;4238;48.404;9.498;2023-03-03T15:58:14;7.10;1.00
8402;DHT22;4238;48.404;9.498;2023-03-03T16:00:55;7.10;1.00
8402;DHT22;4238;48.404;9.498;2023-03-03T16:03:30;6.90;1.00
8402;DHT22;4238;48.404;9.498;2023-03-03T16:06:04;7.00;1.00
8402;DHT22;4238;48.404;9.498;2023-03-03T16:08:41;6.90;99.90
8402;DHT22;4238;48.404;9.498;2023-03-03T16:11:14;6.90;99.90
8402;DHT22;4238;48.404;9.498;2023-03-03T16:14:03;7.10;1.00
8402;DHT22;4238;48.404;9.498;2023-03-03T16:16:40;7.20;1.00
8402;DHT22;4238;48.404;9.498;2023-03-03T16:19:19;7.20;90.70
8402;DHT22;4238;48.404;9.498;2023-03-03T16:22:05;7.00;59.60
8402;DHT22;4238;48.404;9.498;2023-03-03T16:24:46;6.90;99.90
8402;DHT22;4238;48.404;9.498;2023-03-03T16:27:20;6.70;99.90
8402;DHT22;4238;48.404;9.498;2023-03-03T16:30:00;6.50;99.90
8402;DHT22;4238;48.404;9.498;2023-03-03T16:32:35;6.50;99.90
8402;DHT22;4238;48.404;9.498;2023-03-03T16:35:19;6.40;99.90
8402;DHT22;4238;48.404;9.498;2023-03-03T16:37:53;6.30;99.90
8402;DHT22;4238;48.404;9.498;2023-03-03T16:40:24;6.30;99.90
8402;DHT22;4238;48.404;9.498;2023-03-03T16:42:58;6.10;34.80
8402;DHT22;4238;48.404;9.498;2023-03-03T16:45:32;6.00;1.00
8402;DHT22;4238;48.404;9.498;2023-03-03T16:48:21;5.90;1.00
8402;DHT22;4238;48.404;9.498;2023-03-03T16:51:03;5.80;99.90
8402;DHT22;4238;48.404;9.498;2023-03-03T16:53:46;5.70;99.90
8402;DHT22;4238;48.404;9.498;2023-03-03T16:56:18;5.60;99.90
8402;DHT22;4238;48.404;9.498;2023-03-03T16:58:54;5.60;99.90
8402;DHT22;4238;48.404;9.498;2023-03-03T17:01:30;5.50;1.00
8402;DHT22;4238;48.404;9.498;2023-03-03T17:04:05;5.40;1.00
8402;DHT22;4238;48.404;9.498;2023-03-03T17:06:40;5.30;1.00
8402;DHT22;4238;48.404;9.498;2023-03-03T17:09:27;5.30;1.00
8402;DHT22;4238;48.404;9.498;2023-03-03T17:12:08;5.20;1.00
8402;DHT22;4238;48.404;9.498;2023-03-03T17:14:47;5.10;1.00